createdAt,value
2023-12-03T00:00:37.612Z,95.62
2023-12-03T00:01:37.604Z,95.52
2023-12-03T00:02:37.593Z,95.42
2023-12-03T00:03:37.661Z,95.42
2023-12-03T00:04:37.631Z,95.31
2023-12-03T00:05:37.598Z,95.31
2023-12-03T00:06:38.886Z,95.31
2023-12-03T00:07:37.597Z,95.62
2023-12-03T00:08:45.404Z,95.10
2023-12-03T00:09:38.533Z,95.31
2023-12-03T00:10:37.479Z,95.42
2023-12-03T00:11:37.465Z,95.00
2023-12-03T00:12:37.474Z,95.73
2023-12-03T00:13:37.473Z,95.73
2023-12-03T00:14:37.431Z,94.89
2023-12-03T00:15:37.468Z,95.42
2023-12-03T00:16:37.411Z,95.42
2023-12-03T00:17:37.451Z,95.00
2023-12-03T00:18:37.522Z,95.52
2023-12-03T00:19:37.411Z,95.42
2023-12-03T00:20:37.378Z,95.00
2023-12-03T00:21:37.403Z,95.10
2023-12-03T00:22:37.438Z,95.52
2023-12-03T00:23:37.347Z,95.52
2023-12-03T00:24:37.333Z,95.31
2023-12-03T00:25:37.313Z,95.21
2023-12-03T00:26:37.300Z,94.89
2023-12-03T00:27:37.325Z,95.31
2023-12-03T00:28:37.288Z,95.79
2023-12-03T00:29:37.268Z,94.95
2023-12-03T00:30:37.293Z,95.37
2023-12-03T00:31:37.255Z,95.48
2023-12-03T00:32:37.259Z,94.85
2023-12-03T00:33:37.278Z,94.32
2023-12-03T00:34:37.221Z,94.74
2023-12-03T00:35:37.222Z,94.64
2023-12-03T00:36:37.247Z,95.17
2023-12-03T00:37:37.261Z,94.95
2023-12-03T00:38:37.204Z,95.17
2023-12-03T00:39:37.189Z,95.06
2023-12-03T00:40:37.156Z,94.95
2023-12-03T00:41:37.169Z,94.74
2023-12-03T00:42:37.190Z,94.43
2023-12-03T00:43:37.126Z,95.06
2023-12-03T00:44:37.104Z,94.22
2023-12-03T00:45:37.128Z,95.06
2023-12-03T00:46:37.100Z,94.54
2023-12-03T00:47:37.132Z,94.43
2023-12-03T00:48:37.131Z,94.64
2023-12-03T00:49:37.645Z,94.43
2023-12-03T00:50:37.059Z,95.06
2023-12-03T00:51:37.087Z,94.47
2023-12-03T00:52:37.018Z,94.58
2023-12-03T00:53:37.018Z,94.58
2023-12-03T00:54:37.019Z,95.00
2023-12-03T00:55:37.039Z,94.79
2023-12-03T00:56:36.982Z,95.17
2023-12-03T00:57:37.000Z,94.89
2023-12-03T00:58:36.957Z,94.85
2023-12-03T00:59:36.946Z,95.42
2023-12-03T01:00:37.014Z,95.42
2023-12-03T01:01:36.929Z,95.00
2023-12-03T01:02:36.907Z,95.31
2023-12-03T01:03:36.938Z,95.42
2023-12-03T01:04:36.931Z,95.42
2023-12-03T01:05:36.918Z,95.00
2023-12-03T01:06:36.885Z,95.42
2023-12-03T01:07:36.878Z,95.21
2023-12-03T01:08:36.854Z,95.31
2023-12-03T01:09:36.874Z,95.31
2023-12-03T01:10:36.847Z,95.10
2023-12-03T01:11:37.012Z,95.84
2023-12-03T01:12:36.911Z,95.31
2023-12-03T01:13:36.845Z,95.31
2023-12-03T01:14:36.787Z,95.62
2023-12-03T01:15:36.781Z,95.42
2023-12-03T01:16:36.761Z,94.89
2023-12-03T01:17:36.772Z,95.31
2023-12-03T01:18:36.833Z,95.21
2023-12-03T01:19:36.833Z,95.00
2023-12-03T01:20:36.710Z,95.79
2023-12-03T01:21:36.762Z,95.31
2023-12-03T01:22:36.705Z,95.52
2023-12-03T01:23:36.757Z,95.37
2023-12-03T01:24:36.747Z,95.42
2023-12-03T01:25:36.678Z,95.00
2023-12-03T01:26:36.723Z,95.62
2023-12-03T01:27:36.671Z,95.52
2023-12-03T01:28:36.646Z,95.52
2023-12-03T01:29:36.658Z,96.36
2023-12-03T01:30:36.650Z,96.15
2023-12-03T01:31:36.605Z,95.42
2023-12-03T01:32:36.598Z,95.10
2023-12-03T01:33:36.719Z,95.62
2023-12-03T01:34:36.607Z,95.84
2023-12-03T01:35:37.981Z,95.52
2023-12-03T01:36:36.601Z,95.21
2023-12-03T01:37:36.536Z,95.10
2023-12-03T01:38:36.532Z,95.58
2023-12-03T01:39:36.559Z,95.42
2023-12-03T01:40:36.498Z,95.21
2023-12-03T01:41:36.525Z,95.52
2023-12-03T01:42:36.494Z,95.17
2023-12-03T01:43:36.504Z,95.27
2023-12-03T01:44:36.471Z,95.48
2023-12-03T01:45:36.475Z,95.52
2023-12-03T01:46:36.666Z,95.52
2023-12-03T01:47:36.499Z,95.58
2023-12-03T01:48:36.485Z,95.58
2023-12-03T01:49:36.505Z,95.48
2023-12-03T01:50:36.390Z,95.37
2023-12-03T01:51:36.448Z,95.68
2023-12-03T01:52:36.397Z,95.27
2023-12-03T01:53:36.352Z,95.48
2023-12-03T01:54:36.437Z,95.06
2023-12-03T01:55:36.348Z,95.58
2023-12-03T01:56:36.336Z,95.37
2023-12-03T01:57:36.420Z,95.42
2023-12-03T01:58:36.304Z,94.85
2023-12-03T01:59:36.305Z,95.84
2023-12-03T02:00:39.493Z,95.17
2023-12-03T02:01:36.633Z,95.17
2023-12-03T02:02:36.266Z,95.48
2023-12-03T02:03:36.324Z,95.48
2023-12-03T02:04:36.257Z,95.27
2023-12-03T02:05:36.310Z,95.58
2023-12-03T02:06:36.346Z,95.58
2023-12-03T02:07:36.214Z,95.37
2023-12-03T02:08:36.199Z,95.17
2023-12-03T02:09:36.203Z,95.58
2023-12-03T02:10:36.234Z,95.48
2023-12-03T02:11:36.182Z,95.27
2023-12-03T02:12:36.168Z,95.48
2023-12-03T02:13:36.147Z,95.48
2023-12-03T02:14:36.129Z,95.21
2023-12-03T02:15:36.400Z,95.27
2023-12-03T02:16:36.111Z,95.17
2023-12-03T02:17:36.120Z,95.37
2023-12-03T02:18:36.426Z,95.37
2023-12-03T02:19:36.110Z,95.17
2023-12-03T02:20:36.082Z,95.48
2023-12-03T02:21:36.096Z,95.37
2023-12-03T02:22:36.042Z,95.48
2023-12-03T02:23:36.030Z,95.37
2023-12-03T02:24:36.087Z,95.58
2023-12-03T02:25:36.034Z,95.37
2023-12-03T02:26:36.000Z,95.37
2023-12-03T02:27:36.017Z,95.37
2023-12-03T02:28:35.970Z,95.90
2023-12-03T02:29:35.976Z,95.17
2023-12-03T02:30:35.968Z,95.90
2023-12-03T02:31:35.937Z,95.90
2023-12-03T02:32:35.977Z,96.47
2023-12-03T02:33:35.945Z,95.90
2023-12-03T02:34:35.951Z,96.00
2023-12-03T02:35:35.915Z,95.84
2023-12-03T02:36:35.968Z,96.36
2023-12-03T02:37:35.881Z,95.52
2023-12-03T02:38:35.865Z,96.89
2023-12-03T02:39:35.883Z,96.99
2023-12-03T02:40:35.845Z,96.89
2023-12-03T02:41:35.834Z,96.78
2023-12-03T02:42:35.842Z,96.67
2023-12-03T02:43:35.843Z,96.57
2023-12-03T02:44:35.838Z,96.47
2023-12-03T02:45:35.967Z,96.57
2023-12-03T02:46:35.777Z,96.67
2023-12-03T02:47:35.805Z,96.36
2023-12-03T02:48:35.876Z,96.36
2023-12-03T02:49:35.816Z,97.09
2023-12-03T02:50:35.741Z,96.67
2023-12-03T02:51:35.747Z,96.25
2023-12-03T02:52:35.710Z,96.57
2023-12-03T02:53:35.711Z,96.36
2023-12-03T02:54:35.726Z,96.57
2023-12-03T02:55:35.676Z,96.57
2023-12-03T02:56:35.673Z,97.03
2023-12-03T02:57:35.689Z,96.78
2023-12-03T02:58:35.663Z,96.78
2023-12-03T02:59:35.699Z,96.78
2023-12-03T03:00:35.649Z,96.30
2023-12-03T03:01:35.645Z,96.30
2023-12-03T03:02:35.775Z,96.83
2023-12-03T03:03:35.719Z,96.78
2023-12-03T03:04:36.160Z,96.57
2023-12-03T03:05:35.574Z,96.67
2023-12-03T03:06:35.561Z,96.78
2023-12-03T03:07:35.572Z,97.20
2023-12-03T03:08:35.532Z,97.09
2023-12-03T03:09:35.625Z,96.78
2023-12-03T03:10:35.523Z,96.78
2023-12-03T03:11:35.505Z,97.20
2023-12-03T03:12:35.547Z,96.57
2023-12-03T03:13:35.487Z,97.20
2023-12-03T03:14:35.471Z,97.09
2023-12-03T03:15:35.531Z,96.78
2023-12-03T03:16:35.514Z,96.78
2023-12-03T03:17:35.473Z,96.57
2023-12-03T03:18:35.498Z,96.89
2023-12-03T03:19:35.530Z,96.61
2023-12-03T03:20:35.408Z,96.57
2023-12-03T03:21:35.474Z,96.78
2023-12-03T03:22:35.389Z,97.03
2023-12-03T03:23:35.371Z,96.67
2023-12-03T03:24:35.426Z,96.99
2023-12-03T03:25:35.350Z,96.78
2023-12-03T03:26:35.340Z,96.83
2023-12-03T03:27:35.451Z,96.30
2023-12-03T03:28:35.316Z,96.67
2023-12-03T03:29:35.319Z,96.78
2023-12-03T03:30:35.341Z,96.25
2023-12-03T03:31:35.480Z,96.78
2023-12-03T03:32:35.345Z,96.78
2023-12-03T03:33:35.333Z,97.09
2023-12-03T03:34:35.343Z,96.67
2023-12-03T03:35:35.255Z,96.72
2023-12-03T03:36:35.278Z,96.25
2023-12-03T03:37:35.217Z,97.03
2023-12-03T03:38:35.212Z,97.03
2023-12-03T03:39:35.233Z,97.03
2023-12-03T03:40:35.198Z,96.93
2023-12-03T03:41:35.178Z,97.24
2023-12-03T03:42:35.218Z,96.93
2023-12-03T03:43:35.158Z,97.20
2023-12-03T03:44:35.143Z,97.24
2023-12-03T03:45:35.167Z,96.83
2023-12-03T03:46:35.119Z,96.89
2023-12-03T03:47:35.135Z,96.93
2023-12-03T03:48:35.302Z,96.83
2023-12-03T03:49:35.148Z,97.35
2023-12-03T03:50:35.103Z,96.67
2023-12-03T03:51:35.148Z,96.78
2023-12-03T03:52:35.063Z,97.20
2023-12-03T03:53:35.082Z,97.24
2023-12-03T03:54:35.071Z,96.61
2023-12-03T03:55:35.131Z,97.09
2023-12-03T03:56:35.003Z,96.72
2023-12-03T03:57:35.038Z,97.24
2023-12-03T03:58:34.987Z,96.72
2023-12-03T03:59:34.992Z,97.14
2023-12-03T04:00:34.994Z,97.20
2023-12-03T04:01:34.976Z,97.24
2023-12-03T04:02:34.946Z,97.24
2023-12-03T04:03:35.761Z,96.93
2023-12-03T04:04:35.022Z,97.14
2023-12-03T04:05:34.931Z,97.24
2023-12-03T04:06:34.957Z,96.72
2023-12-03T04:07:34.934Z,97.24
2023-12-03T04:08:34.895Z,96.67
2023-12-03T04:09:34.916Z,97.24
2023-12-03T04:10:34.859Z,97.14
2023-12-03T04:11:34.852Z,97.03
2023-12-03T04:12:34.856Z,97.24
2023-12-03T04:13:34.899Z,97.03
2023-12-03T04:14:34.828Z,96.93
2023-12-03T04:15:34.847Z,96.93
2023-12-03T04:16:34.810Z,97.03
2023-12-03T04:17:34.829Z,96.93
2023-12-03T04:18:37.753Z,96.89
2023-12-03T04:19:34.858Z,97.03
2023-12-03T04:20:34.764Z,97.03
2023-12-03T04:21:34.765Z,96.93
2023-12-03T04:22:34.749Z,96.93
2023-12-03T04:23:34.729Z,97.03
2023-12-03T04:24:34.743Z,96.93
2023-12-03T04:25:34.695Z,96.93
2023-12-03T04:26:34.708Z,97.03
2023-12-03T04:27:34.737Z,97.03
2023-12-03T04:28:34.668Z,97.14
2023-12-03T04:29:34.663Z,96.99
2023-12-03T04:30:34.704Z,96.93
2023-12-03T04:31:34.649Z,97.03
2023-12-03T04:32:34.695Z,97.03
2023-12-03T04:33:34.648Z,97.14
2023-12-03T04:34:34.639Z,96.89
2023-12-03T04:35:34.611Z,97.14
2023-12-03T04:36:34.669Z,97.09
2023-12-03T04:37:34.578Z,97.14
2023-12-03T04:38:34.554Z,97.14
2023-12-03T04:39:34.606Z,97.03
2023-12-03T04:40:34.530Z,97.03
2023-12-03T04:41:34.539Z,96.93
2023-12-03T04:42:34.567Z,97.14
2023-12-03T04:43:34.515Z,97.14
2023-12-03T04:44:34.495Z,97.14
2023-12-03T04:45:34.567Z,97.14
2023-12-03T04:46:34.495Z,96.72
2023-12-03T04:47:34.476Z,96.93
2023-12-03T04:48:34.564Z,96.67
2023-12-03T04:49:34.451Z,97.14
2023-12-03T04:50:34.429Z,96.72
2023-12-03T04:51:34.476Z,96.72
2023-12-03T04:52:34.410Z,96.93
2023-12-03T04:53:34.391Z,96.72
2023-12-03T04:54:34.410Z,96.93
2023-12-03T04:55:34.407Z,96.83
2023-12-03T04:56:34.366Z,96.83
2023-12-03T04:57:34.422Z,97.35
2023-12-03T04:58:34.338Z,97.09
2023-12-03T04:59:34.328Z,96.89
2023-12-03T05:00:34.354Z,96.72
2023-12-03T05:01:34.353Z,96.61
2023-12-03T05:02:34.292Z,96.83
2023-12-03T05:03:34.440Z,96.61
2023-12-03T05:04:34.266Z,96.83
2023-12-03T05:05:34.280Z,96.51
2023-12-03T05:06:34.345Z,96.61
2023-12-03T05:07:34.457Z,96.51
2023-12-03T05:08:34.227Z,96.93
2023-12-03T05:09:34.257Z,96.41
2023-12-03T05:10:34.225Z,97.14
2023-12-03T05:11:34.193Z,96.89
2023-12-03T05:12:34.222Z,96.51
2023-12-03T05:13:34.168Z,96.83
2023-12-03T05:14:34.529Z,96.83
2023-12-03T05:15:34.179Z,97.03
2023-12-03T05:16:34.143Z,96.93
2023-12-03T05:17:34.178Z,96.89
2023-12-03T05:18:34.293Z,96.72
2023-12-03T05:19:34.280Z,96.61
2023-12-03T05:20:34.102Z,96.61
2023-12-03T05:21:34.151Z,96.78
2023-12-03T05:22:34.089Z,96.51
2023-12-03T05:23:34.098Z,96.51
2023-12-03T05:24:34.183Z,96.78
2023-12-03T05:25:34.050Z,96.83
2023-12-03T05:26:34.029Z,96.83
2023-12-03T05:27:34.084Z,96.93
2023-12-03T05:28:34.042Z,96.72
2023-12-03T05:29:33.997Z,96.51
2023-12-03T05:30:34.044Z,97.03
2023-12-03T05:31:33.978Z,97.14
2023-12-03T05:32:33.989Z,97.03
2023-12-03T05:33:34.061Z,96.93
2023-12-03T05:34:33.999Z,96.93
2023-12-03T05:35:33.959Z,97.03
2023-12-03T05:36:33.971Z,96.83
2023-12-03T05:37:33.918Z,96.83
2023-12-03T05:38:33.931Z,96.83
2023-12-03T05:39:33.948Z,97.03
2023-12-03T05:40:33.886Z,96.51
2023-12-03T05:41:33.873Z,96.51
2023-12-03T05:42:33.910Z,97.03
2023-12-03T05:43:33.866Z,96.83
2023-12-03T05:44:33.835Z,96.72
2023-12-03T05:45:33.840Z,96.51
2023-12-03T05:46:33.812Z,96.61
2023-12-03T05:47:33.857Z,96.83
2023-12-03T05:48:33.999Z,96.83
2023-12-03T05:49:33.855Z,97.03
2023-12-03T05:50:33.774Z,96.72
2023-12-03T05:51:33.807Z,96.51
2023-12-03T05:52:33.781Z,96.83
2023-12-03T05:53:33.736Z,96.72
2023-12-03T05:54:33.736Z,96.51
2023-12-03T05:55:33.757Z,96.72
2023-12-03T05:56:33.728Z,96.72
2023-12-03T05:57:33.760Z,96.72
2023-12-03T05:58:33.685Z,96.51
2023-12-03T05:59:33.672Z,96.51
2023-12-03T06:00:33.731Z,97.03
2023-12-03T06:01:33.712Z,97.03
2023-12-03T06:02:33.638Z,96.61
2023-12-03T06:03:33.654Z,96.77
2023-12-03T06:04:33.675Z,96.83
2023-12-03T06:05:33.633Z,96.51
2023-12-03T06:06:33.655Z,96.51
2023-12-03T06:07:33.635Z,96.93
2023-12-03T06:08:33.578Z,97.18
2023-12-03T06:09:33.585Z,96.83
2023-12-03T06:10:33.568Z,96.51
2023-12-03T06:11:33.589Z,96.83
2023-12-03T06:12:33.567Z,96.72
2023-12-03T06:13:33.515Z,96.93
2023-12-03T06:14:33.504Z,96.83
2023-12-03T06:15:33.594Z,97.14
2023-12-03T06:16:33.504Z,96.72
2023-12-03T06:17:33.529Z,96.87
2023-12-03T06:18:33.514Z,96.55
2023-12-03T06:19:33.457Z,97.08
2023-12-03T06:20:33.473Z,96.51
2023-12-03T06:21:33.495Z,96.97
2023-12-03T06:22:33.423Z,96.72
2023-12-03T06:23:33.410Z,96.83
2023-12-03T06:24:33.423Z,96.83
2023-12-03T06:25:33.402Z,96.97
2023-12-03T06:26:33.395Z,96.77
2023-12-03T06:27:33.403Z,97.03
2023-12-03T06:28:33.366Z,97.03
2023-12-03T06:29:33.344Z,97.14
2023-12-03T06:30:33.411Z,96.93
2023-12-03T06:31:33.323Z,96.51
2023-12-03T06:32:33.385Z,96.51
2023-12-03T06:33:33.382Z,96.72
2023-12-03T06:34:33.324Z,97.03
2023-12-03T06:35:33.287Z,96.72
2023-12-03T06:36:33.285Z,97.14
2023-12-03T06:37:33.263Z,96.77
2023-12-03T06:38:33.245Z,96.51
2023-12-03T06:39:33.333Z,96.77
2023-12-03T06:40:33.225Z,96.72
2023-12-03T06:41:33.236Z,97.08
2023-12-03T06:42:33.245Z,96.77
2023-12-03T06:43:33.212Z,96.55
2023-12-03T06:44:38.661Z,96.77
2023-12-03T06:45:34.269Z,96.87
2023-12-03T06:46:33.161Z,97.18
2023-12-03T06:47:33.196Z,96.66
2023-12-03T06:48:33.201Z,96.55
2023-12-03T06:49:33.749Z,96.77
2023-12-03T06:50:33.114Z,96.66
2023-12-03T06:51:33.126Z,97.14
2023-12-03T06:52:33.097Z,96.77
2023-12-03T06:53:33.169Z,96.66
2023-12-03T06:54:33.304Z,96.72
2023-12-03T06:55:33.085Z,97.14
2023-12-03T06:56:33.057Z,96.51
2023-12-03T06:57:33.201Z,96.72
2023-12-03T06:58:33.049Z,96.72
2023-12-03T06:59:33.103Z,96.72
2023-12-03T07:00:33.058Z,96.72
2023-12-03T07:01:34.840Z,96.72
2023-12-03T07:02:32.989Z,96.72
2023-12-03T07:03:33.072Z,96.72
2023-12-03T07:04:33.084Z,96.77
2023-12-03T07:05:32.965Z,97.08
2023-12-03T07:06:33.073Z,97.18
2023-12-03T07:07:32.986Z,96.77
2023-12-03T07:08:32.933Z,96.97
2023-12-03T07:09:38.247Z,97.18
2023-12-03T07:10:32.895Z,97.18
2023-12-03T07:11:32.891Z,96.97
2023-12-03T07:12:32.967Z,97.18
2023-12-03T07:13:32.882Z,96.77
2023-12-03T07:14:32.881Z,96.66
2023-12-03T07:15:32.906Z,96.55
2023-12-03T07:16:32.873Z,96.77
2023-12-03T07:17:32.859Z,97.18
2023-12-03T07:18:32.837Z,97.29
2023-12-03T07:19:32.856Z,96.77
2023-12-03T07:20:32.814Z,96.77
2023-12-03T07:21:32.834Z,96.55
2023-12-03T07:22:32.761Z,97.29
2023-12-03T07:23:32.761Z,97.18
2023-12-03T07:24:32.795Z,96.66
2023-12-03T07:25:32.730Z,97.18
2023-12-03T07:26:32.742Z,97.35
2023-12-03T07:27:32.725Z,97.03
2023-12-03T07:28:32.712Z,96.72
2023-12-03T07:29:32.697Z,96.72
2023-12-03T07:30:32.720Z,97.24
2023-12-03T07:31:32.697Z,96.72
2023-12-03T07:32:32.698Z,97.24
2023-12-03T07:33:32.851Z,97.03
2023-12-03T07:34:32.724Z,96.93
2023-12-03T07:35:32.653Z,96.72
2023-12-03T07:36:32.643Z,97.45
2023-12-03T07:37:32.606Z,97.24
2023-12-03T07:38:32.591Z,97.56
2023-12-03T07:39:32.640Z,96.61
2023-12-03T07:40:32.587Z,96.83
2023-12-03T07:41:32.592Z,96.72
2023-12-03T07:42:32.600Z,97.45
2023-12-03T07:43:32.546Z,96.57
2023-12-03T07:44:32.558Z,96.83
2023-12-03T07:45:32.582Z,96.61
2023-12-03T07:46:32.508Z,96.67
2023-12-03T07:47:32.574Z,96.83
2023-12-03T07:48:32.517Z,97.77
2023-12-03T07:49:32.521Z,96.57
2023-12-03T07:50:32.458Z,96.83
2023-12-03T07:51:32.563Z,96.83
2023-12-03T07:52:32.440Z,97.66
2023-12-03T07:53:32.423Z,97.66
2023-12-03T07:54:32.474Z,97.45
2023-12-03T07:55:32.406Z,97.66
2023-12-03T07:56:32.401Z,96.57
2023-12-03T07:57:32.404Z,96.57
2023-12-03T07:58:32.385Z,96.57
2023-12-03T07:59:32.439Z,97.62
2023-12-03T08:00:32.426Z,96.67
2023-12-03T08:01:32.359Z,96.61
2023-12-03T08:02:32.340Z,97.62
2023-12-03T08:03:32.419Z,96.57
2023-12-03T08:04:32.340Z,96.57
2023-12-03T08:06:43.191Z,96.57
2023-12-03T08:07:43.175Z,96.57
2023-12-03T08:08:43.005Z,96.57
2023-12-03T08:09:42.979Z,97.41
2023-12-03T08:10:42.966Z,96.67
2023-12-03T08:11:42.955Z,96.67
2023-12-03T08:12:43.017Z,97.20
2023-12-03T08:13:42.943Z,96.99
2023-12-03T08:14:42.924Z,96.78
2023-12-03T08:15:42.940Z,97.09
2023-12-03T08:16:42.901Z,97.09
2023-12-03T08:17:42.930Z,96.78
2023-12-03T08:18:43.178Z,96.73
2023-12-03T08:19:42.929Z,96.84
2023-12-03T08:20:42.860Z,96.99
2023-12-03T08:21:42.888Z,96.94
2023-12-03T08:22:42.857Z,96.99
2023-12-03T08:23:42.838Z,96.99
2023-12-03T08:24:42.830Z,96.94
2023-12-03T08:25:42.824Z,96.94
2023-12-03T08:26:42.810Z,97.16
2023-12-03T08:27:42.821Z,97.26
2023-12-03T08:28:42.766Z,96.73
2023-12-03T08:29:42.779Z,96.94
2023-12-03T08:30:42.801Z,96.84
2023-12-03T08:31:42.750Z,96.63
2023-12-03T08:32:42.760Z,96.21
2023-12-03T08:33:42.790Z,96.63
2023-12-03T08:34:42.779Z,96.84
2023-12-03T08:35:42.705Z,96.84
2023-12-03T08:36:42.707Z,96.84
2023-12-03T08:37:42.671Z,96.73
2023-12-03T08:38:42.666Z,96.63
2023-12-03T08:39:42.683Z,96.53
2023-12-03T08:40:42.648Z,96.53
2023-12-03T08:41:42.635Z,96.31
2023-12-03T08:42:42.648Z,96.53
2023-12-03T08:43:42.607Z,96.48
2023-12-03T08:44:42.599Z,96.59
2023-12-03T08:45:42.669Z,96.31
2023-12-03T08:46:42.572Z,96.63
2023-12-03T08:47:42.606Z,96.69
2023-12-03T08:48:42.609Z,96.59
2023-12-03T08:49:42.605Z,96.90
2023-12-03T08:50:42.563Z,96.59
2023-12-03T08:51:42.545Z,96.80
2023-12-03T08:52:42.498Z,96.80
2023-12-03T08:53:42.492Z,96.63
2023-12-03T08:54:42.508Z,96.48
2023-12-03T08:55:42.497Z,96.48
2023-12-03T08:56:42.752Z,96.80
2023-12-03T08:57:42.490Z,96.69
2023-12-03T08:58:42.441Z,96.48
2023-12-03T08:59:42.443Z,96.80
2023-12-03T09:01:53.762Z,96.59
2023-12-03T09:02:53.733Z,96.90
2023-12-03T09:03:53.729Z,96.59
2023-12-03T09:04:53.712Z,96.48
2023-12-03T09:05:53.724Z,96.37
2023-12-03T09:06:53.721Z,96.23
2023-12-03T09:07:53.634Z,96.33
2023-12-03T09:08:53.649Z,96.44
2023-12-03T09:09:53.667Z,96.44
2023-12-03T09:10:53.623Z,96.44
2023-12-03T09:11:53.596Z,96.44
2023-12-03T09:12:53.755Z,96.44
2023-12-03T09:13:53.585Z,96.23
2023-12-03T09:14:53.563Z,96.44
2023-12-03T09:15:53.594Z,96.33
2023-12-03T09:16:53.567Z,96.23
2023-12-03T09:17:53.579Z,96.44
2023-12-03T09:18:53.614Z,96.44
2023-12-03T09:19:53.527Z,96.23
2023-12-03T09:20:53.533Z,96.44
2023-12-03T09:21:53.584Z,96.33
2023-12-03T09:22:53.918Z,96.65
2023-12-03T09:23:53.469Z,96.55
2023-12-03T09:24:53.538Z,96.65
2023-12-03T09:25:53.435Z,96.44
2023-12-03T09:26:53.430Z,96.33
2023-12-03T09:27:53.459Z,96.33
2023-12-03T09:28:53.407Z,96.75
2023-12-03T09:29:53.397Z,96.33
2023-12-03T09:30:53.407Z,96.33
2023-12-03T09:31:56.746Z,96.33
2023-12-03T09:32:53.425Z,96.75
2023-12-03T09:33:53.420Z,96.55
2023-12-03T09:34:53.342Z,96.65
2023-12-03T09:35:53.327Z,96.65
2023-12-03T09:36:53.352Z,96.44
2023-12-03T09:37:53.341Z,96.55
2023-12-03T09:38:53.315Z,96.75
2023-12-03T09:39:53.297Z,96.44
2023-12-03T09:40:53.267Z,96.55
2023-12-03T09:41:53.289Z,96.55
2023-12-03T09:42:53.301Z,96.71
2023-12-03T09:43:53.249Z,96.39
2023-12-03T09:44:53.232Z,96.29
2023-12-03T09:45:53.240Z,96.92
2023-12-03T09:46:53.214Z,96.81
2023-12-03T09:47:53.254Z,96.92
2023-12-03T09:48:53.225Z,95.66
2023-12-03T09:49:53.172Z,96.23
2023-12-03T09:50:53.174Z,96.71
2023-12-03T09:51:53.184Z,96.33
2023-12-03T09:52:53.139Z,96.23
2023-12-03T09:53:53.145Z,96.75
2023-12-03T09:54:53.175Z,96.81
2023-12-03T09:55:53.129Z,95.45
2023-12-03T09:56:53.102Z,96.23
2023-12-03T09:57:53.128Z,95.81
2023-12-03T09:58:53.074Z,95.92
2023-12-03T09:59:53.070Z,95.70
2023-12-03T10:00:53.125Z,96.55
2023-12-03T10:01:53.057Z,95.92
2023-12-03T10:02:53.023Z,96.33
2023-12-03T10:03:53.089Z,96.65
2023-12-03T10:04:53.080Z,95.92
2023-12-03T10:05:53.084Z,95.92
2023-12-03T10:06:53.005Z,95.70
2023-12-03T10:07:52.987Z,95.60
2023-12-03T10:08:52.962Z,96.23
2023-12-03T10:09:53.105Z,95.92
2023-12-03T10:10:52.939Z,96.33
2023-12-03T10:11:52.930Z,95.92
2023-12-03T10:12:52.970Z,96.02
2023-12-03T10:13:52.920Z,95.70
2023-12-03T10:14:52.913Z,96.33
2023-12-03T10:15:52.914Z,96.23
2023-12-03T10:16:52.871Z,95.92
2023-12-03T10:17:52.907Z,96.39
2023-12-03T10:18:53.017Z,96.55
2023-12-03T10:19:52.855Z,96.23
2023-12-03T10:20:52.831Z,95.87
2023-12-03T10:21:52.875Z,96.08
2023-12-03T10:22:52.813Z,96.61
2023-12-03T10:23:52.806Z,95.87
2023-12-03T10:24:52.821Z,96.19
2023-12-03T10:25:52.793Z,96.08
2023-12-03T10:26:52.790Z,95.56
2023-12-03T10:27:52.841Z,95.66
2023-12-03T10:28:52.754Z,96.50
2023-12-03T10:29:52.728Z,95.45
2023-12-03T10:30:52.746Z,95.98
2023-12-03T10:31:52.703Z,95.66
2023-12-03T10:32:52.805Z,95.14
2023-12-03T10:33:52.785Z,95.76
2023-12-03T10:34:52.723Z,95.25
2023-12-03T10:35:52.663Z,95.87
2023-12-03T10:36:52.681Z,95.66
2023-12-03T10:37:52.858Z,94.82
2023-12-03T10:38:52.652Z,95.76
2023-12-03T10:39:52.633Z,94.93
2023-12-03T10:40:52.612Z,95.03
2023-12-03T10:41:52.629Z,95.35
2023-12-03T10:42:52.674Z,95.25
2023-12-03T10:43:52.578Z,95.14
2023-12-03T10:44:52.557Z,95.76
2023-12-03T10:45:52.581Z,95.72
2023-12-03T10:46:52.536Z,95.62
2023-12-03T10:47:52.566Z,95.41
2023-12-03T10:48:52.569Z,95.72
2023-12-03T10:49:52.549Z,95.09
2023-12-03T10:50:52.490Z,95.41
2023-12-03T10:51:52.484Z,95.31
2023-12-03T10:52:52.480Z,94.99
2023-12-03T10:53:52.473Z,95.51
2023-12-03T10:54:52.560Z,95.09
2023-12-03T10:55:52.434Z,94.99
2023-12-03T10:56:52.444Z,94.78
2023-12-03T10:57:52.862Z,95.31
2023-12-03T10:58:52.413Z,94.89
2023-12-03T10:59:52.418Z,94.99
2023-12-03T11:00:52.468Z,95.20
2023-12-03T11:01:52.465Z,95.31
2023-12-03T11:02:53.756Z,95.41
2023-12-03T11:03:52.421Z,94.78
2023-12-03T11:04:52.374Z,95.20
2023-12-03T11:05:52.335Z,95.31
2023-12-03T11:06:52.369Z,95.09
2023-12-03T11:07:52.306Z,95.26
2023-12-03T11:08:52.296Z,95.09
2023-12-03T11:09:53.153Z,95.09
2023-12-03T11:10:52.292Z,95.68
2023-12-03T11:11:52.290Z,95.57
2023-12-03T11:12:52.340Z,95.31
2023-12-03T11:13:52.260Z,95.47
2023-12-03T11:14:52.229Z,94.99
2023-12-03T11:15:52.290Z,95.15
2023-12-03T11:16:52.276Z,94.26
2023-12-03T11:17:52.255Z,94.57
2023-12-03T11:18:52.268Z,94.95
2023-12-03T11:19:55.748Z,94.32
2023-12-03T11:20:52.195Z,94.80
2023-12-03T11:21:52.166Z,94.32
2023-12-03T11:22:52.146Z,94.80
2023-12-03T11:23:52.127Z,94.17
2023-12-03T11:24:52.246Z,94.27
2023-12-03T11:25:52.133Z,94.17
2023-12-03T11:26:52.158Z,94.49
2023-12-03T11:27:52.137Z,93.76
2023-12-03T11:28:53.899Z,94.80
2023-12-03T11:29:52.109Z,94.76
2023-12-03T11:30:52.076Z,94.23
2023-12-03T11:31:52.058Z,94.02
2023-12-03T11:32:52.085Z,94.23
2023-12-03T11:33:52.289Z,93.92
2023-12-03T11:34:52.090Z,93.98
2023-12-03T11:35:52.012Z,93.67
2023-12-03T11:36:55.594Z,93.25
2023-12-03T11:37:52.975Z,93.25
2023-12-03T11:38:51.980Z,93.15
2023-12-03T11:39:51.990Z,93.04
2023-12-03T11:40:51.986Z,92.83
2023-12-03T11:41:51.931Z,92.79
2023-12-03T11:42:52.133Z,93.15
2023-12-03T11:43:51.921Z,92.79
2023-12-03T11:44:51.905Z,92.58
2023-12-03T11:45:51.980Z,92.58
2023-12-03T11:46:52.002Z,92.37
2023-12-03T11:47:51.960Z,91.69
2023-12-03T11:48:52.020Z,91.96
2023-12-03T11:49:51.884Z,91.89
2023-12-03T11:50:51.845Z,91.96
2023-12-03T11:51:51.851Z,92.27
2023-12-03T11:52:51.825Z,92.06
2023-12-03T11:53:51.824Z,91.81
2023-12-03T11:54:51.837Z,92.16
2023-12-03T11:55:52.132Z,92.12
2023-12-03T11:56:51.781Z,91.91
2023-12-03T11:57:51.794Z,91.91
2023-12-03T11:58:51.749Z,91.96
2023-12-03T11:59:51.736Z,91.22
2023-12-03T12:00:51.772Z,91.75
2023-12-03T12:01:51.762Z,91.54
2023-12-03T12:02:51.749Z,91.02
2023-12-03T12:03:51.737Z,91.96
2023-12-03T12:04:51.692Z,91.60
2023-12-03T12:05:51.681Z,91.81
2023-12-03T12:06:51.716Z,92.02
2023-12-03T12:07:51.670Z,91.33
2023-12-03T12:08:51.638Z,91.39
2023-12-03T12:09:51.742Z,90.97
2023-12-03T12:10:53.688Z,91.18
2023-12-03T12:11:51.678Z,91.18
2023-12-03T12:12:51.601Z,91.18
2023-12-03T12:13:51.591Z,91.18
2023-12-03T12:14:51.616Z,91.39
2023-12-03T12:15:51.649Z,90.97
2023-12-03T12:16:51.578Z,91.08
2023-12-03T12:17:51.615Z,91.18
2023-12-03T12:18:51.605Z,91.29
2023-12-03T12:19:51.776Z,91.71
2023-12-03T12:20:51.536Z,90.77
2023-12-03T12:21:51.553Z,91.60
2023-12-03T12:22:51.484Z,91.29
2023-12-03T12:23:52.590Z,91.39
2023-12-03T12:24:51.513Z,91.29
2023-12-03T12:25:51.527Z,90.93
2023-12-03T12:26:51.450Z,91.25
2023-12-03T12:27:51.447Z,91.77
2023-12-03T12:28:51.436Z,91.10
2023-12-03T12:29:51.418Z,90.62
2023-12-03T12:30:51.449Z,90.41
2023-12-03T12:31:51.383Z,90.26
2023-12-03T12:32:51.400Z,90.26
2023-12-03T12:33:51.447Z,90.16
2023-12-03T12:34:51.398Z,90.06
2023-12-03T12:35:51.355Z,90.06
2023-12-03T12:36:51.393Z,90.06
2023-12-03T12:37:51.320Z,89.75
2023-12-03T12:38:51.306Z,90.06
2023-12-03T12:39:51.341Z,90.06
2023-12-03T12:40:51.294Z,89.89
2023-12-03T12:41:51.275Z,90.20
2023-12-03T12:42:51.333Z,90.31
2023-12-03T12:43:51.262Z,89.26
2023-12-03T12:44:51.258Z,89.58
2023-12-03T12:45:51.300Z,90.06
2023-12-03T12:46:51.224Z,89.68
2023-12-03T12:47:51.277Z,89.47
2023-12-03T12:48:51.362Z,89.47
2023-12-03T12:49:51.312Z,89.16
2023-12-03T12:50:51.175Z,88.91
2023-12-03T12:52:51.158Z,89.50
2023-12-03T12:53:51.155Z,89.81
2023-12-03T12:54:51.299Z,89.43
2023-12-03T12:55:51.120Z,89.50